sensor_id;sensor_type;location;lat;lon;timestamp;P1;durP1;ratioP1;P2;durP2;ratioP2
72891;SDS011;61032;50.782;6.818;2022-11-27T00:00:58;5.25;;;1.85;;
72891;SDS011;61032;50.782;6.818;2022-11-27T00:01:59;5.88;;;2.20;;
72891;SDS011;61032;50.782;6.818;2022-11-27T00:02:59;6.13;;;1.80;;
72891;SDS011;61032;50.782;6.818;2022-11-27T00:03:59;3.30;;;1.50;;
72891;SDS011;61032;50.782;6.818;2022-11-27T00:05:00;5.35;;;1.70;;
72891;SDS011;61032;50.782;6.818;2022-11-27T00:06:00;6.45;;;2.10;;
72891;SDS011;61032;50.782;6.818;2022-11-27T00:07:01;5.82;;;1.85;;
72891;SDS011;61032;50.782;6.818;2022-11-27T00:08:01;5.15;;;2.00;;
72891;SDS011;61032;50.782;6.818;2022-11-27T00:09:02;9.70;;;1.65;;
72891;SDS011;61032;50.782;6.818;2022-11-27T00:10:05;8.43;;;1.40;;
72891;SDS011;61032;50.782;6.818;2022-11-27T00:11:10;11.52;;;1.83;;
72891;SDS011;61032;50.782;6.818;2022-11-27T00:12:12;5.20;;;1.83;;
72891;SDS011;61032;50.782;6.818;2022-11-27T00:13:12;8.73;;;2.15;;
72891;SDS011;61032;50.782;6.818;2022-11-27T00:14:13;5.88;;;1.70;;
72891;SDS011;61032;50.782;6.818;2022-11-27T00:15:15;8.80;;;4.03;;
72891;SDS011;61032;50.782;6.818;2022-11-27T00:16:16;8.13;;;1.60;;
72891;SDS011;61032;50.782;6.818;2022-11-27T00:17:17;8.27;;;1.67;;
72891;SDS011;61032;50.782;6.818;2022-11-27T00:18:17;11.32;;;2.00;;
72891;SDS011;61032;50.782;6.818;2022-11-27T00:19:17;3.40;;;1.27;;
72891;SDS011;61032;50.782;6.818;2022-11-27T00:20:18;5.35;;;2.28;;
72891;SDS011;61032;50.782;6.818;2022-11-27T00:21:19;6.15;;;1.70;;
72891;SDS011;61032;50.782;6.818;2022-11-27T00:22:23;8.10;;;2.58;;
72891;SDS011;61032;50.782;6.818;2022-11-27T00:23:25;8.43;;;1.80;;
72891;SDS011;61032;50.782;6.818;2022-11-27T00:24:25;6.38;;;1.65;;
72891;SDS011;61032;50.782;6.818;2022-11-27T00:25:26;10.07;;;2.92;;
72891;SDS011;61032;50.782;6.818;2022-11-27T00:26:26;6.40;;;1.63;;
72891;SDS011;61032;50.782;6.818;2022-11-27T00:27:28;6.00;;;1.80;;
72891;SDS011;61032;50.782;6.818;2022-11-27T00:28:28;3.83;;;1.45;;
72891;SDS011;61032;50.782;6.818;2022-11-27T00:29:29;5.93;;;1.80;;
72891;SDS011;61032;50.782;6.818;2022-11-27T00:30:30;4.68;;;1.42;;
72891;SDS011;61032;50.782;6.818;2022-11-27T00:31:31;4.45;;;2.17;;
72891;SDS011;61032;50.782;6.818;2022-11-27T00:32:32;5.07;;;1.65;;
72891;SDS011;61032;50.782;6.818;2022-11-27T00:33:32;4.25;;;1.73;;
72891;SDS011;61032;50.782;6.818;2022-11-27T00:34:33;5.07;;;1.50;;
72891;SDS011;61032;50.782;6.818;2022-11-27T00:35:33;4.10;;;1.08;;
72891;SDS011;61032;50.782;6.818;2022-11-27T00:36:34;5.32;;;2.30;;
72891;SDS011;61032;50.782;6.818;2022-11-27T00:37:35;5.60;;;1.65;;
72891;SDS011;61032;50.782;6.818;2022-11-27T00:38:36;3.78;;;1.35;;
72891;SDS011;61032;50.782;6.818;2022-11-27T00:39:37;5.57;;;1.75;;
72891;SDS011;61032;50.782;6.818;2022-11-27T00:40:39;5.90;;;1.95;;
72891;SDS011;61032;50.782;6.818;2022-11-27T00:41:39;4.15;;;1.70;;
72891;SDS011;61032;50.782;6.818;2022-11-27T00:42:40;4.75;;;1.42;;
72891;SDS011;61032;50.782;6.818;2022-11-27T00:43:40;5.60;;;2.03;;
72891;SDS011;61032;50.782;6.818;2022-11-27T00:44:40;8.70;;;1.48;;
72891;SDS011;61032;50.782;6.818;2022-11-27T00:45:40;8.30;;;2.15;;
72891;SDS011;61032;50.782;6.818;2022-11-27T00:46:41;6.93;;;1.80;;
72891;SDS011;61032;50.782;6.818;2022-11-27T00:47:41;4.95;;;1.80;;
72891;SDS011;61032;50.782;6.818;2022-11-27T00:48:42;4.72;;;1.95;;
72891;SDS011;61032;50.782;6.818;2022-11-27T00:49:43;6.22;;;2.20;;
72891;SDS011;61032;50.782;6.818;2022-11-27T00:50:43;5.30;;;1.77;;
72891;SDS011;61032;50.782;6.818;2022-11-27T00:51:43;8.70;;;1.92;;
72891;SDS011;61032;50.782;6.818;2022-11-27T00:52:43;5.20;;;1.73;;
72891;SDS011;61032;50.782;6.818;2022-11-27T00:53:44;4.22;;;1.55;;
72891;SDS011;61032;50.782;6.818;2022-11-27T00:54:45;5.63;;;1.73;;
72891;SDS011;61032;50.782;6.818;2022-11-27T00:55:45;5.78;;;1.75;;
72891;SDS011;61032;50.782;6.818;2022-11-27T00:56:45;3.92;;;2.10;;
72891;SDS011;61032;50.782;6.818;2022-11-27T00:57:46;4.93;;;1.75;;
72891;SDS011;61032;50.782;6.818;2022-11-27T00:58:46;6.32;;;2.05;;
72891;SDS011;61032;50.782;6.818;2022-11-27T00:59:46;3.85;;;1.48;;
72891;SDS011;61032;50.782;6.818;2022-11-27T01:00:53;4.18;;;2.13;;
72891;SDS011;61032;50.782;6.818;2022-11-27T01:01:54;7.57;;;2.03;;
72891;SDS011;61032;50.782;6.818;2022-11-27T01:02:54;7.97;;;2.47;;
72891;SDS011;61032;50.782;6.818;2022-11-27T01:03:55;3.95;;;1.58;;
72891;SDS011;61032;50.782;6.818;2022-11-27T01:04:57;5.38;;;2.58;;
72891;SDS011;61032;50.782;6.818;2022-11-27T01:06:01;7.80;;;2.33;;
72891;SDS011;61032;50.782;6.818;2022-11-27T01:08:06;6.22;;;1.77;;
72891;SDS011;61032;50.782;6.818;2022-11-27T01:09:06;6.60;;;1.70;;
72891;SDS011;61032;50.782;6.818;2022-11-27T01:10:07;6.68;;;2.15;;
72891;SDS011;61032;50.782;6.818;2022-11-27T01:11:12;5.40;;;1.73;;
72891;SDS011;61032;50.782;6.818;2022-11-27T01:12:15;4.10;;;1.90;;
72891;SDS011;61032;50.782;6.818;2022-11-27T01:13:16;6.45;;;2.17;;
72891;SDS011;61032;50.782;6.818;2022-11-27T01:14:16;5.78;;;1.52;;
72891;SDS011;61032;50.782;6.818;2022-11-27T01:15:17;4.72;;;1.90;;
72891;SDS011;61032;50.782;6.818;2022-11-27T01:16:21;3.00;;;1.88;;
72891;SDS011;61032;50.782;6.818;2022-11-27T01:17:23;6.38;;;1.90;;
72891;SDS011;61032;50.782;6.818;2022-11-27T01:18:23;6.25;;;2.35;;
72891;SDS011;61032;50.782;6.818;2022-11-27T01:19:24;4.93;;;1.50;;
72891;SDS011;61032;50.782;6.818;2022-11-27T01:20:25;9.82;;;2.53;;
72891;SDS011;61032;50.782;6.818;2022-11-27T01:21:26;5.50;;;1.90;;
72891;SDS011;61032;50.782;6.818;2022-11-27T01:22:28;8.52;;;2.00;;
72891;SDS011;61032;50.782;6.818;2022-11-27T01:23:28;6.90;;;2.28;;
72891;SDS011;61032;50.782;6.818;2022-11-27T01:24:29;6.13;;;2.05;;
72891;SDS011;61032;50.782;6.818;2022-11-27T01:25:29;10.48;;;2.67;;
72891;SDS011;61032;50.782;6.818;2022-11-27T01:26:30;5.57;;;1.70;;
72891;SDS011;61032;50.782;6.818;2022-11-27T01:27:31;4.63;;;2.05;;
72891;SDS011;61032;50.782;6.818;2022-11-27T01:28:31;5.75;;;2.10;;
72891;SDS011;61032;50.782;6.818;2022-11-27T01:29:32;4.45;;;1.95;;
72891;SDS011;61032;50.782;6.818;2022-11-27T01:30:33;6.47;;;3.08;;
72891;SDS011;61032;50.782;6.818;2022-11-27T01:31:36;4.60;;;1.80;;
72891;SDS011;61032;50.782;6.818;2022-11-27T01:32:36;7.95;;;2.47;;
72891;SDS011;61032;50.782;6.818;2022-11-27T01:33:36;5.75;;;1.98;;
72891;SDS011;61032;50.782;6.818;2022-11-27T01:34:37;5.20;;;2.15;;
72891;SDS011;61032;50.782;6.818;2022-11-27T01:35:37;5.85;;;2.10;;
72891;SDS011;61032;50.782;6.818;2022-11-27T01:36:38;4.30;;;2.03;;
72891;SDS011;61032;50.782;6.818;2022-11-27T01:37:38;6.65;;;2.03;;
72891;SDS011;61032;50.782;6.818;2022-11-27T01:38:38;8.18;;;2.13;;
72891;SDS011;61032;50.782;6.818;2022-11-27T01:39:39;6.03;;;2.30;;
72891;SDS011;61032;50.782;6.818;2022-11-27T01:40:40;7.03;;;2.20;;
72891;SDS011;61032;50.782;6.818;2022-11-27T01:41:40;5.50;;;2.35;;
72891;SDS011;61032;50.782;6.818;2022-11-27T01:42:41;6.35;;;2.30;;
72891;SDS011;61032;50.782;6.818;2022-11-27T01:43:43;5.35;;;1.92;;
72891;SDS011;61032;50.782;6.818;2022-11-27T01:44:52;7.85;;;2.47;;
72891;SDS011;61032;50.782;6.818;2022-11-27T01:45:54;6.78;;;2.75;;
72891;SDS011;61032;50.782;6.818;2022-11-27T01:47:57;5.18;;;2.58;;
72891;SDS011;61032;50.782;6.818;2022-11-27T01:50:11;6.18;;;2.72;;
72891;SDS011;61032;50.782;6.818;2022-11-27T01:51:17;8.07;;;2.83;;
72891;SDS011;61032;50.782;6.818;2022-11-27T01:52:20;8.00;;;2.20;;
72891;SDS011;61032;50.782;6.818;2022-11-27T01:53:26;9.50;;;2.78;;
72891;SDS011;61032;50.782;6.818;2022-11-27T01:54:34;4.80;;;2.30;;
72891;SDS011;61032;50.782;6.818;2022-11-27T01:55:45;9.27;;;2.67;;
72891;SDS011;61032;50.782;6.818;2022-11-27T01:56:49;5.50;;;2.80;;
72891;SDS011;61032;50.782;6.818;2022-11-27T01:57:56;6.30;;;2.70;;
72891;SDS011;61032;50.782;6.818;2022-11-27T01:58:59;5.90;;;2.20;;
72891;SDS011;61032;50.782;6.818;2022-11-27T02:00:02;10.93;;;2.75;;
72891;SDS011;61032;50.782;6.818;2022-11-27T02:01:07;5.38;;;2.53;;
72891;SDS011;61032;50.782;6.818;2022-11-27T02:02:07;5.90;;;2.10;;
72891;SDS011;61032;50.782;6.818;2022-11-27T02:03:08;7.80;;;3.40;;
72891;SDS011;61032;50.782;6.818;2022-11-27T02:04:08;5.70;;;2.53;;
72891;SDS011;61032;50.782;6.818;2022-11-27T02:05:09;6.57;;;2.70;;
72891;SDS011;61032;50.782;6.818;2022-11-27T02:06:13;6.45;;;2.50;;
72891;SDS011;61032;50.782;6.818;2022-11-27T02:07:13;6.03;;;2.33;;
72891;SDS011;61032;50.782;6.818;2022-11-27T02:08:15;8.77;;;2.53;;
72891;SDS011;61032;50.782;6.818;2022-11-27T02:09:16;7.30;;;2.95;;
72891;SDS011;61032;50.782;6.818;2022-11-27T02:10:17;8.20;;;2.30;;
72891;SDS011;61032;50.782;6.818;2022-11-27T02:11:20;6.18;;;2.40;;
72891;SDS011;61032;50.782;6.818;2022-11-27T02:12:27;4.53;;;2.25;;
72891;SDS011;61032;50.782;6.818;2022-11-27T02:13:56;5.25;;;2.85;;
72891;SDS011;61032;50.782;6.818;2022-11-27T02:16:33;4.93;;;2.35;;
72891;SDS011;61032;50.782;6.818;2022-11-27T02:17:48;8.30;;;2.75;;
72891;SDS011;61032;50.782;6.818;2022-11-27T02:19:24;5.00;;;2.30;;
72891;SDS011;61032;50.782;6.818;2022-11-27T02:20:42;6.78;;;2.40;;
72891;SDS011;61032;50.782;6.818;2022-11-27T02:21:54;5.22;;;2.92;;
72891;SDS011;61032;50.782;6.818;2022-11-27T02:24:41;6.43;;;2.10;;
72891;SDS011;61032;50.782;6.818;2022-11-27T02:27:21;6.55;;;2.38;;
72891;SDS011;61032;50.782;6.818;2022-11-27T02:30:00;7.50;;;2.53;;
72891;SDS011;61032;50.782;6.818;2022-11-27T02:31:12;6.05;;;2.30;;
72891;SDS011;61032;50.782;6.818;2022-11-27T02:32:24;6.15;;;2.97;;
72891;SDS011;61032;50.782;6.818;2022-11-27T02:33:40;6.53;;;2.47;;
72891;SDS011;61032;50.782;6.818;2022-11-27T02:34:49;6.50;;;2.00;;
72891;SDS011;61032;50.782;6.818;2022-11-27T02:36:00;6.60;;;2.65;;
72891;SDS011;61032;50.782;6.818;2022-11-27T02:38:24;6.07;;;3.00;;
72891;SDS011;61032;50.782;6.818;2022-11-27T02:39:31;6.15;;;2.60;;
72891;SDS011;61032;50.782;6.818;2022-11-27T02:40:42;5.97;;;2.63;;
72891;SDS011;61032;50.782;6.818;2022-11-27T02:41:53;5.20;;;2.35;;
72891;SDS011;61032;50.782;6.818;2022-11-27T02:43:44;6.72;;;2.40;;
72891;SDS011;61032;50.782;6.818;2022-11-27T02:44:26;8.75;;;2.50;;
72891;SDS011;61032;50.782;6.818;2022-11-27T02:45:33;3.63;;;2.00;;
72891;SDS011;61032;50.782;6.818;2022-11-27T02:46:37;6.97;;;3.08;;
72891;SDS011;61032;50.782;6.818;2022-11-27T02:47:41;6.03;;;3.38;;
72891;SDS011;61032;50.782;6.818;2022-11-27T02:48:46;6.13;;;2.30;;
72891;SDS011;61032;50.782;6.818;2022-11-27T02:49:54;6.72;;;2.65;;
72891;SDS011;61032;50.782;6.818;2022-11-27T02:50:56;5.18;;;2.10;;
72891;SDS011;61032;50.782;6.818;2022-11-27T02:51:56;4.95;;;2.17;;
72891;SDS011;61032;50.782;6.818;2022-11-27T02:53:00;7.43;;;2.70;;
72891;SDS011;61032;50.782;6.818;2022-11-27T02:54:05;5.80;;;2.42;;
72891;SDS011;61032;50.782;6.818;2022-11-27T02:55:10;10.05;;;2.65;;
72891;SDS011;61032;50.782;6.818;2022-11-27T02:56:15;7.30;;;2.25;;
72891;SDS011;61032;50.782;6.818;2022-11-27T02:57:19;6.60;;;2.97;;
72891;SDS011;61032;50.782;6.818;2022-11-27T02:58:24;6.18;;;2.30;;
72891;SDS011;61032;50.782;6.818;2022-11-27T02:59:28;6.47;;;2.25;;
72891;SDS011;61032;50.782;6.818;2022-11-27T03:00:30;10.02;;;3.30;;
72891;SDS011;61032;50.782;6.818;2022-11-27T03:01:33;6.00;;;2.33;;
72891;SDS011;61032;50.782;6.818;2022-11-27T03:02:44;6.68;;;2.58;;
72891;SDS011;61032;50.782;6.818;2022-11-27T03:03:49;4.68;;;2.85;;
72891;SDS011;61032;50.782;6.818;2022-11-27T03:04:54;4.65;;;2.15;;
72891;SDS011;61032;50.782;6.818;2022-11-27T03:05:59;8.15;;;2.60;;
72891;SDS011;61032;50.782;6.818;2022-11-27T03:07:09;5.90;;;2.50;;
72891;SDS011;61032;50.782;6.818;2022-11-27T03:09:33;7.47;;;2.47;;
72891;SDS011;61032;50.782;6.818;2022-11-27T03:10:36;7.00;;;2.60;;
72891;SDS011;61032;50.782;6.818;2022-11-27T03:11:51;6.85;;;3.05;;
72891;SDS011;61032;50.782;6.818;2022-11-27T03:12:51;6.65;;;2.97;;
72891;SDS011;61032;50.782;6.818;2022-11-27T03:13:52;4.80;;;2.50;;
72891;SDS011;61032;50.782;6.818;2022-11-27T03:14:56;6.38;;;2.63;;
72891;SDS011;61032;50.782;6.818;2022-11-27T03:20:52;14.15;;;3.13;;
72891;SDS011;61032;50.782;6.818;2022-11-27T03:22:04;6.57;;;3.35;;
72891;SDS011;61032;50.782;6.818;2022-11-27T03:23:04;7.97;;;2.63;;
72891;SDS011;61032;50.782;6.818;2022-11-27T03:24:08;7.45;;;3.33;;
72891;SDS011;61032;50.782;6.818;2022-11-27T03:25:09;7.53;;;3.15;;
72891;SDS011;61032;50.782;6.818;2022-11-27T03:26:10;7.20;;;2.90;;
72891;SDS011;61032;50.782;6.818;2022-11-27T03:27:13;5.90;;;2.55;;
72891;SDS011;61032;50.782;6.818;2022-11-27T03:28:16;5.78;;;2.80;;
72891;SDS011;61032;50.782;6.818;2022-11-27T03:29:22;8.23;;;3.05;;
72891;SDS011;61032;50.782;6.818;2022-11-27T03:30:28;6.15;;;3.17;;
72891;SDS011;61032;50.782;6.818;2022-11-27T03:31:29;8.63;;;3.00;;
72891;SDS011;61032;50.782;6.818;2022-11-27T03:32:30;5.35;;;2.75;;
72891;SDS011;61032;50.782;6.818;2022-11-27T03:33:31;7.45;;;2.72;;
72891;SDS011;61032;50.782;6.818;2022-11-27T03:34:32;6.47;;;2.67;;
72891;SDS011;61032;50.782;6.818;2022-11-27T03:35:33;6.75;;;3.42;;
72891;SDS011;61032;50.782;6.818;2022-11-27T03:36:33;8.15;;;2.47;;
72891;SDS011;61032;50.782;6.818;2022-11-27T03:37:33;6.22;;;2.50;;
72891;SDS011;61032;50.782;6.818;2022-11-27T03:38:34;7.03;;;3.42;;
72891;SDS011;61032;50.782;6.818;2022-11-27T03:39:34;6.22;;;2.38;;
72891;SDS011;61032;50.782;6.818;2022-11-27T03:40:41;5.82;;;2.78;;
72891;SDS011;61032;50.782;6.818;2022-11-27T03:41:53;6.90;;;2.58;;
72891;SDS011;61032;50.782;6.818;2022-11-27T03:44:48;5.45;;;2.33;;
72891;SDS011;61032;50.782;6.818;2022-11-27T03:46:09;5.25;;;2.60;;
72891;SDS011;61032;50.782;6.818;2022-11-27T03:49:32;7.40;;;2.95;;
72891;SDS011;61032;50.782;6.818;2022-11-27T03:51:51;9.20;;;2.80;;
72891;SDS011;61032;50.782;6.818;2022-11-27T03:54:43;7.07;;;2.55;;
72891;SDS011;61032;50.782;6.818;2022-11-27T03:56:12;7.32;;;2.83;;
72891;SDS011;61032;50.782;6.818;2022-11-27T03:58:24;7.47;;;2.85;;
72891;SDS011;61032;50.782;6.818;2022-11-27T03:59:46;5.43;;;2.38;;
72891;SDS011;61032;50.782;6.818;2022-11-27T04:00:49;9.02;;;3.35;;
72891;SDS011;61032;50.782;6.818;2022-11-27T04:01:51;4.90;;;2.53;;
72891;SDS011;61032;50.782;6.818;2022-11-27T04:02:52;5.05;;;2.47;;
72891;SDS011;61032;50.782;6.818;2022-11-27T04:03:52;8.65;;;3.28;;
72891;SDS011;61032;50.782;6.818;2022-11-27T04:04:52;7.55;;;3.10;;
72891;SDS011;61032;50.782;6.818;2022-11-27T04:05:53;9.27;;;3.25;;
72891;SDS011;61032;50.782;6.818;2022-11-27T04:06:54;6.40;;;2.85;;
72891;SDS011;61032;50.782;6.818;2022-11-27T04:07:54;7.43;;;3.35;;
72891;SDS011;61032;50.782;6.818;2022-11-27T04:08:55;9.20;;;2.90;;
72891;SDS011;61032;50.782;6.818;2022-11-27T04:09:55;9.13;;;3.05;;
72891;SDS011;61032;50.782;6.818;2022-11-27T04:10:56;8.68;;;3.40;;
72891;SDS011;61032;50.782;6.818;2022-11-27T04:11:56;7.93;;;3.30;;
72891;SDS011;61032;50.782;6.818;2022-11-27T04:12:56;7.82;;;3.30;;
72891;SDS011;61032;50.782;6.818;2022-11-27T04:13:57;6.68;;;3.42;;
72891;SDS011;61032;50.782;6.818;2022-11-27T04:14:57;4.75;;;2.45;;
72891;SDS011;61032;50.782;6.818;2022-11-27T04:16:00;4.85;;;2.67;;
72891;SDS011;61032;50.782;6.818;2022-11-27T04:17:02;7.28;;;2.78;;
72891;SDS011;61032;50.782;6.818;2022-11-27T04:18:02;7.05;;;3.10;;
72891;SDS011;61032;50.782;6.818;2022-11-27T04:19:02;8.52;;;3.03;;
72891;SDS011;61032;50.782;6.818;2022-11-27T04:20:03;7.22;;;2.42;;
72891;SDS011;61032;50.782;6.818;2022-11-27T04:21:05;8.13;;;3.42;;
72891;SDS011;61032;50.782;6.818;2022-11-27T04:22:05;8.70;;;3.35;;
72891;SDS011;61032;50.782;6.818;2022-11-27T04:23:05;6.72;;;2.95;;
72891;SDS011;61032;50.782;6.818;2022-11-27T04:24:06;10.40;;;3.42;;
72891;SDS011;61032;50.782;6.818;2022-11-27T04:25:06;4.03;;;2.40;;
72891;SDS011;61032;50.782;6.818;2022-11-27T04:26:07;11.48;;;3.60;;
72891;SDS011;61032;50.782;6.818;2022-11-27T04:27:07;6.72;;;3.75;;
72891;SDS011;61032;50.782;6.818;2022-11-27T04:28:08;7.10;;;3.20;;
72891;SDS011;61032;50.782;6.818;2022-11-27T04:29:08;8.18;;;3.35;;
72891;SDS011;61032;50.782;6.818;2022-11-27T04:30:08;8.05;;;2.78;;
72891;SDS011;61032;50.782;6.818;2022-11-27T04:31:11;6.25;;;3.25;;
72891;SDS011;61032;50.782;6.818;2022-11-27T04:32:11;5.18;;;3.08;;
72891;SDS011;61032;50.782;6.818;2022-11-27T04:33:11;7.38;;;2.70;;
72891;SDS011;61032;50.782;6.818;2022-11-27T04:34:11;6.47;;;2.90;;
72891;SDS011;61032;50.782;6.818;2022-11-27T04:35:12;6.25;;;3.70;;
72891;SDS011;61032;50.782;6.818;2022-11-27T04:36:12;7.80;;;3.22;;
72891;SDS011;61032;50.782;6.818;2022-11-27T04:37:13;6.88;;;3.40;;
72891;SDS011;61032;50.782;6.818;2022-11-27T04:38:13;9.05;;;3.38;;
72891;SDS011;61032;50.782;6.818;2022-11-27T04:39:13;7.20;;;3.28;;
72891;SDS011;61032;50.782;6.818;2022-11-27T04:40:14;5.97;;;3.13;;
72891;SDS011;61032;50.782;6.818;2022-11-27T04:41:15;6.95;;;2.85;;
72891;SDS011;61032;50.782;6.818;2022-11-27T04:42:15;7.65;;;3.40;;
72891;SDS011;61032;50.782;6.818;2022-11-27T04:43:15;7.50;;;3.33;;
72891;SDS011;61032;50.782;6.818;2022-11-27T04:44:16;7.18;;;2.85;;
72891;SDS011;61032;50.782;6.818;2022-11-27T04:45:16;8.98;;;3.53;;
72891;SDS011;61032;50.782;6.818;2022-11-27T04:46:16;7.70;;;3.10;;
72891;SDS011;61032;50.782;6.818;2022-11-27T04:47:17;6.88;;;3.15;;
72891;SDS011;61032;50.782;6.818;2022-11-27T04:48:17;8.85;;;3.67;;
72891;SDS011;61032;50.782;6.818;2022-11-27T04:49:18;8.98;;;3.35;;
72891;SDS011;61032;50.782;6.818;2022-11-27T04:50:18;5.80;;;3.42;;
72891;SDS011;61032;50.782;6.818;2022-11-27T04:51:18;7.78;;;4.13;;
72891;SDS011;61032;50.782;6.818;2022-11-27T04:52:19;5.30;;;3.40;;
72891;SDS011;61032;50.782;6.818;2022-11-27T04:53:19;8.98;;;3.40;;
72891;SDS011;61032;50.782;6.818;2022-11-27T04:54:19;8.13;;;3.45;;
72891;SDS011;61032;50.782;6.818;2022-11-27T04:55:19;6.18;;;3.03;;
72891;SDS011;61032;50.782;6.818;2022-11-27T04:56:20;6.45;;;2.92;;
72891;SDS011;61032;50.782;6.818;2022-11-27T04:57:20;7.82;;;2.97;;
72891;SDS011;61032;50.782;6.818;2022-11-27T04:58:20;5.65;;;2.80;;
72891;SDS011;61032;50.782;6.818;2022-11-27T04:59:21;7.05;;;2.97;;
72891;SDS011;61032;50.782;6.818;2022-11-27T05:00:22;5.40;;;2.80;;
72891;SDS011;61032;50.782;6.818;2022-11-27T05:01:22;8.57;;;3.22;;
72891;SDS011;61032;50.782;6.818;2022-11-27T05:02:22;5.18;;;2.80;;
72891;SDS011;61032;50.782;6.818;2022-11-27T05:03:23;5.70;;;2.97;;
72891;SDS011;61032;50.782;6.818;2022-11-27T05:04:23;5.43;;;3.03;;
72891;SDS011;61032;50.782;6.818;2022-11-27T05:05:24;6.90;;;2.97;;
72891;SDS011;61032;50.782;6.818;2022-11-27T05:06:25;6.85;;;2.45;;
72891;SDS011;61032;50.782;6.818;2022-11-27T05:07:25;7.10;;;3.13;;
72891;SDS011;61032;50.782;6.818;2022-11-27T05:08:27;6.95;;;2.78;;
72891;SDS011;61032;50.782;6.818;2022-11-27T05:09:29;7.38;;;2.90;;
72891;SDS011;61032;50.782;6.818;2022-11-27T05:10:29;6.82;;;2.72;;
72891;SDS011;61032;50.782;6.818;2022-11-27T05:11:29;8.00;;;3.45;;
72891;SDS011;61032;50.782;6.818;2022-11-27T05:12:30;6.22;;;3.28;;
72891;SDS011;61032;50.782;6.818;2022-11-27T05:13:31;6.20;;;3.10;;
72891;SDS011;61032;50.782;6.818;2022-11-27T05:14:32;10.57;;;4.13;;
72891;SDS011;61032;50.782;6.818;2022-11-27T05:15:32;6.07;;;3.47;;
72891;SDS011;61032;50.782;6.818;2022-11-27T05:16:32;6.45;;;2.75;;
72891;SDS011;61032;50.782;6.818;2022-11-27T05:17:33;6.07;;;2.95;;
72891;SDS011;61032;50.782;6.818;2022-11-27T05:18:33;5.30;;;2.45;;
72891;SDS011;61032;50.782;6.818;2022-11-27T05:19:33;5.05;;;2.78;;
72891;SDS011;61032;50.782;6.818;2022-11-27T05:20:34;5.07;;;2.95;;
72891;SDS011;61032;50.782;6.818;2022-11-27T05:21:34;10.10;;;3.38;;
72891;SDS011;61032;50.782;6.818;2022-11-27T05:22:34;6.72;;;3.00;;
72891;SDS011;61032;50.782;6.818;2022-11-27T05:23:35;7.72;;;3.20;;
72891;SDS011;61032;50.782;6.818;2022-11-27T05:24:35;8.85;;;3.20;;
72891;SDS011;61032;50.782;6.818;2022-11-27T05:25:35;6.15;;;3.05;;
72891;SDS011;61032;50.782;6.818;2022-11-27T05:26:36;5.53;;;2.63;;
72891;SDS011;61032;50.782;6.818;2022-11-27T05:28:38;9.00;;;3.47;;
72891;SDS011;61032;50.782;6.818;2022-11-27T05:29:38;7.50;;;2.67;;
72891;SDS011;61032;50.782;6.818;2022-11-27T05:30:39;4.97;;;2.55;;
72891;SDS011;61032;50.782;6.818;2022-11-27T05:31:39;7.28;;;2.80;;
72891;SDS011;61032;50.782;6.818;2022-11-27T05:32:40;7.15;;;2.67;;
72891;SDS011;61032;50.782;6.818;2022-11-27T05:33:40;4.97;;;2.95;;
72891;SDS011;61032;50.782;6.818;2022-11-27T05:34:41;7.75;;;3.28;;
72891;SDS011;61032;50.782;6.818;2022-11-27T05:35:41;7.25;;;2.88;;
72891;SDS011;61032;50.782;6.818;2022-11-27T05:36:42;6.43;;;2.35;;
72891;SDS011;61032;50.782;6.818;2022-11-27T05:37:42;6.80;;;3.55;;
72891;SDS011;61032;50.782;6.818;2022-11-27T05:38:43;9.48;;;3.05;;
72891;SDS011;61032;50.782;6.818;2022-11-27T05:39:43;6.82;;;3.30;;
72891;SDS011;61032;50.782;6.818;2022-11-27T05:40:43;6.82;;;2.55;;
72891;SDS011;61032;50.782;6.818;2022-11-27T05:41:44;4.82;;;3.08;;
72891;SDS011;61032;50.782;6.818;2022-11-27T05:42:44;9.60;;;3.15;;
72891;SDS011;61032;50.782;6.818;2022-11-27T05:43:44;4.82;;;2.85;;
72891;SDS011;61032;50.782;6.818;2022-11-27T05:44:45;6.20;;;2.38;;
72891;SDS011;61032;50.782;6.818;2022-11-27T05:45:45;7.50;;;3.10;;
72891;SDS011;61032;50.782;6.818;2022-11-27T05:46:45;7.18;;;3.05;;
72891;SDS011;61032;50.782;6.818;2022-11-27T05:47:45;7.05;;;2.97;;
72891;SDS011;61032;50.782;6.818;2022-11-27T05:48:46;6.00;;;2.67;;
72891;SDS011;61032;50.782;6.818;2022-11-27T05:49:46;4.28;;;2.75;;
72891;SDS011;61032;50.782;6.818;2022-11-27T05:50:46;6.40;;;3.75;;
72891;SDS011;61032;50.782;6.818;2022-11-27T05:51:47;5.88;;;2.88;;
72891;SDS011;61032;50.782;6.818;2022-11-27T05:52:47;5.63;;;3.70;;
72891;SDS011;61032;50.782;6.818;2022-11-27T05:53:48;5.68;;;2.88;;
72891;SDS011;61032;50.782;6.818;2022-11-27T05:54:48;5.78;;;3.00;;
72891;SDS011;61032;50.782;6.818;2022-11-27T05:55:48;6.18;;;2.95;;
72891;SDS011;61032;50.782;6.818;2022-11-27T05:56:48;8.13;;;2.90;;
72891;SDS011;61032;50.782;6.818;2022-11-27T05:57:49;4.90;;;2.80;;
72891;SDS011;61032;50.782;6.818;2022-11-27T05:58:49;6.20;;;3.47;;
72891;SDS011;61032;50.782;6.818;2022-11-27T05:59:50;5.25;;;3.30;;
72891;SDS011;61032;50.782;6.818;2022-11-27T06:00:51;8.20;;;4.97;;
72891;SDS011;61032;50.782;6.818;2022-11-27T06:01:51;9.45;;;5.72;;
72891;SDS011;61032;50.782;6.818;2022-11-27T06:02:51;9.95;;;5.43;;
72891;SDS011;61032;50.782;6.818;2022-11-27T06:03:52;9.18;;;4.22;;
72891;SDS011;61032;50.782;6.818;2022-11-27T06:04:52;5.38;;;3.95;;
72891;SDS011;61032;50.782;6.818;2022-11-27T06:05:52;8.05;;;3.83;;
72891;SDS011;61032;50.782;6.818;2022-11-27T06:06:53;6.90;;;3.28;;
72891;SDS011;61032;50.782;6.818;2022-11-27T06:07:53;9.68;;;4.00;;
72891;SDS011;61032;50.782;6.818;2022-11-27T06:08:53;5.65;;;3.05;;
72891;SDS011;61032;50.782;6.818;2022-11-27T06:09:54;6.90;;;3.38;;
72891;SDS011;61032;50.782;6.818;2022-11-27T06:10:54;4.57;;;2.85;;
72891;SDS011;61032;50.782;6.818;2022-11-27T06:11:55;6.90;;;3.65;;
72891;SDS011;61032;50.782;6.818;2022-11-27T06:12:55;7.20;;;3.13;;
72891;SDS011;61032;50.782;6.818;2022-11-27T06:13:55;6.70;;;3.00;;
72891;SDS011;61032;50.782;6.818;2022-11-27T06:14:56;11.68;;;3.10;;
72891;SDS011;61032;50.782;6.818;2022-11-27T06:15:56;8.13;;;3.28;;
72891;SDS011;61032;50.782;6.818;2022-11-27T06:16:56;6.43;;;2.47;;
72891;SDS011;61032;50.782;6.818;2022-11-27T06:17:57;4.93;;;3.40;;
72891;SDS011;61032;50.782;6.818;2022-11-27T06:18:57;4.85;;;2.80;;
72891;SDS011;61032;50.782;6.818;2022-11-27T06:19:57;5.13;;;2.67;;
72891;SDS011;61032;50.782;6.818;2022-11-27T06:20:57;5.88;;;2.58;;
72891;SDS011;61032;50.782;6.818;2022-11-27T06:21:58;7.75;;;3.00;;
72891;SDS011;61032;50.782;6.818;2022-11-27T06:22:58;4.72;;;2.17;;
72891;SDS011;61032;50.782;6.818;2022-11-27T06:23:58;6.25;;;2.90;;
72891;SDS011;61032;50.782;6.818;2022-11-27T06:24:59;4.50;;;2.42;;
72891;SDS011;61032;50.782;6.818;2022-11-27T06:26:07;6.22;;;2.75;;
72891;SDS011;61032;50.782;6.818;2022-11-27T06:27:09;6.55;;;2.78;;
72891;SDS011;61032;50.782;6.818;2022-11-27T06:28:09;5.60;;;3.13;;
72891;SDS011;61032;50.782;6.818;2022-11-27T06:29:10;6.95;;;2.45;;
72891;SDS011;61032;50.782;6.818;2022-11-27T06:30:10;5.30;;;2.88;;
72891;SDS011;61032;50.782;6.818;2022-11-27T06:31:12;6.93;;;2.92;;
72891;SDS011;61032;50.782;6.818;2022-11-27T06:32:14;5.88;;;2.97;;
72891;SDS011;61032;50.782;6.818;2022-11-27T06:33:14;5.55;;;2.70;;
72891;SDS011;61032;50.782;6.818;2022-11-27T06:34:14;7.45;;;2.72;;
72891;SDS011;61032;50.782;6.818;2022-11-27T06:35:15;4.32;;;2.45;;
72891;SDS011;61032;50.782;6.818;2022-11-27T06:36:15;4.78;;;2.45;;
72891;SDS011;61032;50.782;6.818;2022-11-27T06:37:16;5.40;;;2.45;;
72891;SDS011;61032;50.782;6.818;2022-11-27T06:38:17;7.13;;;2.55;;
72891;SDS011;61032;50.782;6.818;2022-11-27T06:39:17;5.25;;;2.97;;
72891;SDS011;61032;50.782;6.818;2022-11-27T06:40:17;6.10;;;2.72;;
72891;SDS011;61032;50.782;6.818;2022-11-27T06:41:19;6.18;;;2.65;;
72891;SDS011;61032;50.782;6.818;2022-11-27T06:42:20;4.75;;;2.20;;